• Join FlightAware (Why Join?)
  • Login
  • US Flag 
12:47AM EDT


 

Airport Tracker/Info


-or-


 

Live Flight TrackerFlight Track Log ✈ TAM3802 ✈ 11-Nov-2013 ✈ SBBR / BSB - SBPJ / PMW

Flight Track Log - Related Links

Times and Time Zones

All times are in EST time to prevent confusion due to time zone crossing. See the TAM3802 flight status page for this flight to view local times or setup timezone preferences in your user account.

Time Position Orientation Groundspeed Altitude Reporting Facility
EST Latitude Longitude Course Direction KTS MPH feet Rate Location/Type
08:20PM -15.8630 -47.9130 280° West 150 173  Level FlightAware
08:21PM -15.8650 -47.9450 266° West 173 199 4,600 5,460 Climbing FlightAware
08:21PM -15.8660 -47.9620 266° West 178 205 5,200 1,440 Climbing FlightAware
08:22PM -15.8510 -47.9820 308° West 190 219 5,800 1,080 Climbing FlightAware
08:22PM -15.8280 -47.9850 353° North 217 250 6,200 1,200 Climbing FlightAware
08:23PM -15.8000 -47.9890 352° North 245 282 6,800 1,440 Climbing FlightAware
08:23PM -15.7700 -47.9920 355° North 276 318 7,400 2,040 Climbing FlightAware
08:23PM -15.7360 -47.9950 355° North 287 330 8,500 2,580 Climbing FlightAware
08:24PM -15.6960 -47.9990 355° North 293 337 9,800 1,860 Climbing FlightAware
08:25PM -15.6240 -48.0070 354° North 339 390 11,000 1,680 Climbing FlightAware
08:25PM -15.5840 -48.0110 354° North 352 405 11,900 2,400 Climbing FlightAware
08:26PM -15.4820 -48.0220 354° North 365 420 14,400 2,220 Climbing FlightAware
08:27PM -15.3900 -48.0320 354° North 378 435 16,300 2,100 Climbing FlightAware
08:28PM -15.2720 -48.0440 354° North 386 444 18,700 2,040 Climbing FlightAware
08:29PM -15.2010 -48.0520 354° North 395 455 19,900 1,800 Climbing FlightAware
08:29PM -15.1450 -48.0580 354° North 398 458 20,800 1,620 Climbing FlightAware
08:30PM -15.0810 -48.0640 355° North 404 465 21,700 1,620 Climbing FlightAware
08:31PM -15.0150 -48.0720 353° North 406 467 22,700 1,620 Climbing FlightAware
08:32PM -14.9030 -48.0820 355° North 410 472 24,300 1,500 Climbing FlightAware
08:32PM -14.7970 -48.0870 357° North 418 481 25,600 1,260 Climbing FlightAware
08:33PM -14.6950 -48.0930 357° North 429 494 26,600 1,080 Climbing FlightAware
08:34PM -14.5850 -48.1000 356° North 440 506 27,500 900 Climbing FlightAware
08:35PM -14.4760 -48.1070 356° North 454 522 28,300 1,020 Climbing FlightAware
08:36PM -14.3670 -48.1130 357° North 460 529 29,300 1,200 Climbing FlightAware
08:37PM -14.2390 -48.1210 357° North 460 529 30,500 1,200 Climbing FlightAware
08:38PM -14.1370 -48.1280 356° North 457 526 31,600 1,200 Climbing FlightAware
08:39PM -14.0170 -48.1350 357° North 454 522 32,700 1,200 Climbing FlightAware
08:40PM -13.8940 -48.1430 356° North 449 517 34,000 780 Climbing FlightAware
08:40PM -13.8080 -48.1480 357° North 450 518 34,000  Level FlightAware
08:41PM -13.6700 -48.1620 354° North 447 514 34,000  Level FlightAware
08:42PM -13.5680 -48.1970 342° North 450 518 34,000  Level FlightAware
08:43PM -13.4750 -48.2290 341° North 450 518 34,000  Level FlightAware
08:44PM -13.4110 -48.2520 341° North 450 518 34,000  Level FlightAware
08:45PM -13.2890 -48.2920 342° North 450 518 34,000  Level FlightAware
08:45PM -13.2870 -48.2930 334° Northwest 450 518 34,000  Level FlightAware
08:46PM -13.1150 -48.3490 342° North 450 518 34,000  Level FlightAware
08:47PM -13.0620 -48.3660 343° North 451 519 34,000  Level FlightAware
08:48PM -12.9550 -48.4020 342° North 454 522 34,000  Level FlightAware
08:48PM -12.8560 -48.4350 342° North 456 525 34,000  Level FlightAware
08:49PM -12.7520 -48.4610 346° North 464 534 34,000  Level FlightAware
08:50PM -12.7010 -48.4580 North 466 536 34,000  Level FlightAware
08:50PM -12.6380 -48.4540 North 464 534 34,000  Level FlightAware
08:51PM -12.5080 -48.4470 North 463 533 34,000  Level FlightAware
08:52PM -12.4100 -48.4410 North 463 533 34,000  Level FlightAware
08:53PM -12.3000 -48.4340 North 465 535 34,000 -780 Level FlightAware
08:54PM -12.1840 -48.4270 North 474 545 32,800 -1,380 Descending FlightAware
08:54PM -12.1580 -48.4260 North 472 543 32,400 -2,040 Descending FlightAware
08:55PM -12.0020 -48.4170 North 450 518 29,800 -2,340 Descending FlightAware
08:55PM -11.9790 -48.4160 North 444 511 29,200 -1,920 Descending FlightAware
08:56PM -11.8430 -48.4080 North 427 491 27,100 -1,980 Descending FlightAware
08:57PM -11.7170 -48.4010 North 410 472 25,000 -2,280 Descending FlightAware
08:58PM -11.6780 -48.3980 North 401 461 24,200 -1,980 Descending FlightAware
08:58PM -11.6060 -48.3940 North 388 447 23,000 -1,860 Descending FlightAware
09:00PM -11.4690 -48.3860 North 367 422 20,700 -1,740 Descending FlightAware
09:01PM -11.3860 -48.3810 North 354 407 19,400 -1,560 Descending FlightAware
09:01PM -11.3420 -48.3790 North 350 403 18,700 -1,560 Descending FlightAware
09:02PM -11.2400 -48.3730 North 343 395 17,100 -1,620 Descending FlightAware
09:02PM -11.2200 -48.3720 North 342 394 16,800 -1,440 Descending FlightAware
09:03PM -11.1510 -48.3680 North 341 392 15,700 -1,380 Descending FlightAware
09:04PM -11.0730 -48.3630 North 342 394 14,400 -720 Descending FlightAware
09:05PM -11.0040 -48.3600 North 342 394 14,400 -2,340 Level FlightAware
09:05PM -10.9140 -48.3450 North 351 404 11,000 -2,460 Descending FlightAware
09:06PM -10.8420 -48.3310 11° North 315 362 10,500 -360 Descending FlightAware
09:07PM -10.8080 -48.3240 11° North 315 362 10,500 -1,740 Level FlightAware
09:07PM -10.8420 -48.3310 191° South 298 343 9,200 -1,200 Descending FlightAware
09:08PM -10.7840 -48.3190 11° North 298 343 9,200  Level FlightAware
09:08PM -10.7560 -48.3140 10° North 298 343 9,200  Level FlightAware
09:09PM -10.7150 -48.3060 11° North 298 343 9,200  Level FlightAware
09:12PM -10.5166 -48.3302 353° North  Level Estimated
09:13PM -10.4372 -48.3399 353° North  Level Estimated
09:14PM -10.3579 -48.3495 353° North  Level Estimated
09:15PM -10.2900 -48.3578 353° North  Level Estimated
09:16PM -10.2900 -48.3578 90° East  Level Estimated
09:17PM -10.2900 -48.3578 90° East  Level Estimated
09:18PM -10.2900 -48.3578 90° East  Level Estimated
09:19PM -10.2900 -48.3578 90° East  Level Estimated
09:20PM -10.2900 -48.3578 90° East  Level Estimated
09:21PM -10.2900 -48.3578 90° East  Level Estimated
09:22PM -10.2900 -48.3578 90° East  Level Estimated
09:23PM -10.2900 -48.3578 90° East  Level Estimated
09:24PM -10.2900 -48.3578 90° East  Level Estimated
09:25PM -10.2900 -48.3578 90° East  Level Estimated
09:26PM -10.2900 -48.3578 90° East  Level Estimated
09:27PM -10.2900 -48.3578 90° East  Level Estimated
09:28PM -10.2900 -48.3578 90° East  Level Estimated
09:29PM -10.2900 -48.3578 90° East  Level Estimated
09:30PM -10.2900 -48.3578 90° East  Level Estimated
09:31PM -10.2900 -48.3578 90° East  Level Estimated
09:32PM -10.2900 -48.3578 90° East  Level Estimated
09:33PM -10.2900 -48.3578 90° East  Level Estimated
09:34PM -10.2900 -48.3578 90° East  Level Estimated
09:35PM -10.2900 -48.3578 90° East  Level Estimated
09:36PM -10.2900 -48.3578 90° East  Level Estimated
09:37PM -10.2900 -48.3578 90° East  Level Estimated
09:38PM -10.2900 -48.3578 90° East  Level Estimated
09:39PM -10.2900 -48.3578 90° East  Level Estimated
09:40PM -10.2900 -48.3578 90° East  Level Estimated
09:41PM -10.2900 -48.3578 90° East  Level Estimated
09:42PM -10.2900 -48.3578 90° East  Level Estimated
09:43PM -10.2900 -48.3578 90° East  Level Estimated
09:44PM -10.2900 -48.3578 90° East  Level Estimated
09:45PM -10.2900 -48.3578 90° East  Level Estimated
09:46PM -10.2900 -48.3578 90° East  Level Estimated